Cornucopia Destiny — WDE6386 — position and weather

sailwx.info

Track history (hours):
 
Tides and Currents Weather Stations Pressure Air Temp Water Temp Dewpoint Dewpoint Depression Visibility Wind Speed Wind Dir Waves Ship Positions

Cornucopia Destiny

Owner: Sultan Wholesale LLC, Keyport, NJ. More information available from US FCC via Universal Licensing System and Coast Guard Vessel Documentation Center.

Last reported at 2015-Apr-19 04:19 UTC. Time now 2015-Apr-19 09:23 UTC.
Position N 40°45' W 074°01'.

Length 39 m.

Type: Passenger vessel. MMSI: 367379570.

Date/timePositionNaut miles runAvg speedWind from/ knotsBaromVisibWave heightAir tempDewpointWater temp
2015-Apr-19 04:19N 40°45' W 074°01'0 0.0
2015-Apr-19 03:33N 40°45' W 074°01'1 0.9
2015-Apr-19 02:33N 40°44' W 074°01'2 2.4
2015-Apr-19 01:33N 40°42' W 074°01'1 0.6
2015-Apr-19 00:33N 40°42' W 074°01'3 2.9
2015-Apr-18 23:33N 40°45' W 074°01'0 0.0
2015-Apr-18 22:33N 40°45' W 074°01'0 0.0
2015-Apr-18 21:33N 40°45' W 074°01'0 0.0
2015-Apr-18 20:33N 40°45' W 074°01'0 0.0
2015-Apr-18 19:33N 40°45' W 074°01'0 0.0
2015-Apr-18 18:33N 40°45' W 074°01'0 0.0
2015-Apr-18 17:33N 40°45' W 074°01'0 0.0
2015-Apr-18 16:34N 40°45' W 074°01'0 0.0
2015-Apr-18 15:33N 40°45' W 074°01'0 0.0
2015-Apr-18 14:34N 40°45' W 074°01'0 0.0
2015-Apr-18 02:33N 40°45' W 074°01'0 0.0
2015-Apr-18 01:34N 40°45' W 074°01'2 2.3
2015-Apr-18 00:33N 40°43' W 074°02'1 1.4
2015-Apr-17 23:33N 40°42' W 074°00'3 3.2
2015-Apr-17 22:34N 40°45' W 074°01'0 0.0
2015-Apr-17 21:34N 40°45' W 074°01'0 0.0
2015-Apr-17 20:34N 40°45' W 074°01'0 0.0
2015-Apr-17 17:33N 40°45' W 074°01'0 0.0
2015-Apr-17 16:33N 40°45' W 074°01'0 0.0
2015-Apr-17 15:33N 40°45' W 074°01'0 0.0
2015-Apr-16 16:33N 40°45' W 074°01'0 0.0
2015-Apr-16 15:33N 40°45' W 074°01'0 0.0
2015-Apr-15 02:22N 40°45' W 074°01'0 0.0
2015-Apr-15 01:33N 40°45' W 074°01'2 1.5
2015-Apr-15 00:33N 40°44' W 074°02'1 0.6
2015-Apr-14 23:33N 40°43' W 074°02'2 1.9
2015-Apr-14 22:33N 40°41' W 074°02'2 1.9
2015-Apr-14 21:33N 40°43' W 074°02'2 1.9
2015-Apr-14 20:33N 40°45' W 074°01'0 0.3
2015-Apr-14 19:33N 40°45' W 074°01'0 0.0
2015-Apr-14 18:33N 40°45' W 074°01'0 0.0
2015-Apr-14 17:33N 40°45' W 074°01'0 0.0
2015-Apr-14 16:33N 40°45' W 074°01'0 0.0
2015-Apr-14 15:33N 40°45' W 074°01'0 0.0
2015-Apr-14 08:33N 40°45' W 074°01'0 0.0
2015-Apr-14 07:33N 40°45' W 074°01'5 5.5
2015-Apr-14 06:33N 40°40' W 074°03'6 6.4
2015-Apr-14 05:33N 40°39' W 074°11'8 6.9
2015-Apr-14 04:24N 40°31' W 074°15'2 0.3
2015-Apr-13 22:14N 40°30' W 074°17'  
Track history (hours):
 
Tides and Currents Weather Stations Pressure Air Temp Water Temp Dewpoint Dewpoint Depression Visibility Wind Speed Wind Dir Waves Ship Positions

Cornucopia Destiny

Owner: Sultan Wholesale LLC, Keyport, NJ. More information available from US FCC via Universal Licensing System and Coast Guard Vessel Documentation Center.

Last reported at 2015-Apr-19 04:19 UTC. Time now 2015-Apr-19 09:23 UTC.
Position N 40°45' W 074°01'.

Length 39 m.

Type: Passenger vessel. MMSI: 367379570.

Date/timePositionNaut miles runAvg speedWind from/ knotsBaromVisibWave heightAir tempDewpointWater temp
2015-Apr-19 04:19N 40°45' W 074°01'0 0.0
2015-Apr-19 03:33N 40°45' W 074°01'1 0.9
2015-Apr-19 02:33N 40°44' W 074°01'2 2.4
2015-Apr-19 01:33N 40°42' W 074°01'1 0.6
2015-Apr-19 00:33N 40°42' W 074°01'3 2.9
2015-Apr-18 23:33N 40°45' W 074°01'0 0.0
2015-Apr-18 22:33N 40°45' W 074°01'0 0.0
2015-Apr-18 21:33N 40°45' W 074°01'0 0.0
2015-Apr-18 20:33N 40°45' W 074°01'0 0.0
2015-Apr-18 19:33N 40°45' W 074°01'0 0.0
2015-Apr-18 18:33N 40°45' W 074°01'0 0.0
2015-Apr-18 17:33N 40°45' W 074°01'0 0.0
2015-Apr-18 16:34N 40°45' W 074°01'0 0.0
2015-Apr-18 15:33N 40°45' W 074°01'0 0.0
2015-Apr-18 14:34N 40°45' W 074°01'0 0.0
2015-Apr-18 02:33N 40°45' W 074°01'0 0.0
2015-Apr-18 01:34N 40°45' W 074°01'2 2.3
2015-Apr-18 00:33N 40°43' W 074°02'1 1.4
2015-Apr-17 23:33N 40°42' W 074°00'3 3.2
2015-Apr-17 22:34N 40°45' W 074°01'0 0.0
2015-Apr-17 21:34N 40°45' W 074°01'0 0.0
2015-Apr-17 20:34N 40°45' W 074°01'0 0.0
2015-Apr-17 17:33N 40°45' W 074°01'0 0.0
2015-Apr-17 16:33N 40°45' W 074°01'0 0.0
2015-Apr-17 15:33N 40°45' W 074°01'0 0.0
2015-Apr-16 16:33N 40°45' W 074°01'0 0.0
2015-Apr-16 15:33N 40°45' W 074°01'0 0.0
2015-Apr-15 02:22N 40°45' W 074°01'0 0.0
2015-Apr-15 01:33N 40°45' W 074°01'2 1.5
2015-Apr-15 00:33N 40°44' W 074°02'1 0.6
2015-Apr-14 23:33N 40°43' W 074°02'2 1.9
2015-Apr-14 22:33N 40°41' W 074°02'2 1.9
2015-Apr-14 21:33N 40°43' W 074°02'2 1.9
2015-Apr-14 20:33N 40°45' W 074°01'0 0.3
2015-Apr-14 19:33N 40°45' W 074°01'0 0.0
2015-Apr-14 18:33N 40°45' W 074°01'0 0.0
2015-Apr-14 17:33N 40°45' W 074°01'0 0.0
2015-Apr-14 16:33N 40°45' W 074°01'0 0.0
2015-Apr-14 15:33N 40°45' W 074°01'0 0.0
2015-Apr-14 08:33N 40°45' W 074°01'0 0.0
2015-Apr-14 07:33N 40°45' W 074°01'5 5.5
2015-Apr-14 06:33N 40°40' W 074°03'6 6.4
2015-Apr-14 05:33N 40°39' W 074°11'8 6.9
2015-Apr-14 04:24N 40°31' W 074°15'2 0.3
2015-Apr-13 22:14N 40°30' W 074°17'  

Dump ship's entire track history